sensor_id;sensor_type;location;lat;lon;timestamp;pressure;altitude;pressure_sealevel;temperature;humidity
21960;BME280;11144;43.030;25.108;2022-09-30T00:00:25;98808.50;;;17.19;100.00
21960;BME280;11144;43.030;25.108;2022-09-30T00:02:00;98812.13;;;17.18;100.00
21960;BME280;11144;43.030;25.108;2022-09-30T00:03:33;98820.06;;;17.20;100.00
21960;BME280;11144;43.030;25.108;2022-09-30T00:05:07;98817.03;;;17.12;100.00
21960;BME280;11144;43.030;25.108;2022-09-30T00:06:41;98818.09;;;17.09;100.00
21960;BME280;11144;43.030;25.108;2022-09-30T00:08:14;98812.97;;;17.06;100.00
21960;BME280;11144;43.030;25.108;2022-09-30T00:09:47;98820.16;;;17.06;100.00
21960;BME280;11144;43.030;25.108;2022-09-30T00:11:22;98809.56;;;17.04;100.00
21960;BME280;11144;43.030;25.108;2022-09-30T00:12:56;98812.97;;;17.06;100.00
21960;BME280;11144;43.030;25.108;2022-09-30T00:14:29;98813.22;;;17.03;100.00
21960;BME280;11144;43.030;25.108;2022-09-30T00:16:03;98808.91;;;17.01;100.00
21960;BME280;11144;43.030;25.108;2022-09-30T00:17:37;98816.41;;;16.96;100.00
21960;BME280;11144;43.030;25.108;2022-09-30T00:19:11;98816.97;;;16.88;100.00
21960;BME280;11144;43.030;25.108;2022-09-30T00:20:45;98836.59;;;16.87;100.00
21960;BME280;11144;43.030;25.108;2022-09-30T00:22:17;98841.00;;;16.88;100.00
21960;BME280;11144;43.030;25.108;2022-09-30T00:23:50;98829.44;;;16.88;100.00
21960;BME280;11144;43.030;25.108;2022-09-30T00:25:23;98825.06;;;16.87;100.00
21960;BME280;11144;43.030;25.108;2022-09-30T00:26:56;98820.66;;;16.85;100.00
21960;BME280;11144;43.030;25.108;2022-09-30T00:28:30;98819.94;;;16.83;100.00
21960;BME280;11144;43.030;25.108;2022-09-30T00:30:04;98823.47;;;16.84;100.00
21960;BME280;11144;43.030;25.108;2022-09-30T00:31:37;98826.25;;;16.83;100.00
21960;BME280;11144;43.030;25.108;2022-09-30T00:33:12;98825.38;;;16.82;100.00
21960;BME280;11144;43.030;25.108;2022-09-30T00:34:44;98828.16;;;16.80;100.00
21960;BME280;11144;43.030;25.108;2022-09-30T00:36:17;98831.13;;;16.76;100.00
21960;BME280;11144;43.030;25.108;2022-09-30T00:37:51;98836.56;;;16.74;100.00
21960;BME280;11144;43.030;25.108;2022-09-30T00:39:27;98837.44;;;16.75;100.00
21960;BME280;11144;43.030;25.108;2022-09-30T00:41:01;98841.19;;;16.72;100.00
21960;BME280;11144;43.030;25.108;2022-09-30T00:42:38;98835.41;;;16.66;100.00
21960;BME280;11144;43.030;25.108;2022-09-30T00:44:40;98839.34;;;16.48;100.00
21960;BME280;11144;43.030;25.108;2022-09-30T00:46:19;98835.72;;;16.35;100.00
21960;BME280;11144;43.030;25.108;2022-09-30T00:47:54;98837.19;;;16.26;100.00
21960;BME280;11144;43.030;25.108;2022-09-30T00:49:29;98833.69;;;16.26;100.00
21960;BME280;11144;43.030;25.108;2022-09-30T00:51:04;98842.63;;;16.25;100.00
21960;BME280;11144;43.030;25.108;2022-09-30T00:52:38;98840.19;;;16.22;100.00
21960;BME280;11144;43.030;25.108;2022-09-30T00:54:14;98824.38;;;16.19;100.00
21960;BME280;11144;43.030;25.108;2022-09-30T00:55:54;98835.69;;;16.22;100.00
21960;BME280;11144;43.030;25.108;2022-09-30T00:57:29;98829.50;;;16.22;100.00
21960;BME280;11144;43.030;25.108;2022-09-30T00:59:05;98824.72;;;16.27;100.00
21960;BME280;11144;43.030;25.108;2022-09-30T01:00:40;98829.50;;;16.22;100.00
21960;BME280;11144;43.030;25.108;2022-09-30T01:02:13;98822.00;;;16.14;100.00
21960;BME280;11144;43.030;25.108;2022-09-30T01:03:51;98830.09;;;16.13;100.00
21960;BME280;11144;43.030;25.108;2022-09-30T01:05:27;98835.63;;;16.10;100.00
21960;BME280;11144;43.030;25.108;2022-09-30T01:07:05;98844.41;;;16.12;100.00
21960;BME280;11144;43.030;25.108;2022-09-30T01:08:39;98837.38;;;16.11;100.00
21960;BME280;11144;43.030;25.108;2022-09-30T01:10:12;98840.22;;;16.08;100.00
21960;BME280;11144;43.030;25.108;2022-09-30T01:11:46;98846.72;;;16.04;100.00
21960;BME280;11144;43.030;25.108;2022-09-30T01:13:23;98848.63;;;16.02;100.00
21960;BME280;11144;43.030;25.108;2022-09-30T01:14:58;98852.06;;;16.04;100.00
21960;BME280;11144;43.030;25.108;2022-09-30T01:16:44;98853.22;;;16.00;100.00
21960;BME280;11144;43.030;25.108;2022-09-30T01:18:27;98856.09;;;15.97;100.00
21960;BME280;11144;43.030;25.108;2022-09-30T01:22:21;98845.81;;;15.91;100.00
21960;BME280;11144;43.030;25.108;2022-09-30T01:26:41;98856.47;;;15.91;100.00
21960;BME280;11144;43.030;25.108;2022-09-30T01:28:45;98854.78;;;15.90;100.00
21960;BME280;11144;43.030;25.108;2022-09-30T01:30:45;98857.53;;;15.88;100.00
21960;BME280;11144;43.030;25.108;2022-09-30T01:32:27;98856.88;;;15.85;100.00
21960;BME280;11144;43.030;25.108;2022-09-30T01:34:09;98855.38;;;15.81;100.00
21960;BME280;11144;43.030;25.108;2022-09-30T01:36:04;98859.94;;;15.79;100.00
21960;BME280;11144;43.030;25.108;2022-09-30T01:37:46;98858.22;;;15.78;100.00
21960;BME280;11144;43.030;25.108;2022-09-30T01:39:31;98866.97;;;15.80;100.00
21960;BME280;11144;43.030;25.108;2022-09-30T01:41:09;98860.72;;;15.81;100.00
21960;BME280;11144;43.030;25.108;2022-09-30T01:42:47;98862.41;;;15.82;100.00
21960;BME280;11144;43.030;25.108;2022-09-30T01:44:30;98862.59;;;15.79;100.00
21960;BME280;11144;43.030;25.108;2022-09-30T01:46:16;98864.31;;;15.80;100.00
21960;BME280;11144;43.030;25.108;2022-09-30T01:47:57;98862.41;;;15.82;100.00
21960;BME280;11144;43.030;25.108;2022-09-30T01:49:39;98859.75;;;15.82;100.00
21960;BME280;11144;43.030;25.108;2022-09-30T01:51:18;98860.72;;;15.81;100.00
21960;BME280;11144;43.030;25.108;2022-09-30T01:53:03;98846.16;;;15.72;100.00
21960;BME280;11144;43.030;25.108;2022-09-30T01:54:44;98848.50;;;15.77;100.00
21960;BME280;11144;43.030;25.108;2022-09-30T01:56:21;98856.63;;;15.75;100.00
21960;BME280;11144;43.030;25.108;2022-09-30T01:57:59;98858.53;;;15.73;100.00
21960;BME280;11144;43.030;25.108;2022-09-30T01:59:36;98861.47;;;15.69;100.00
21960;BME280;11144;43.030;25.108;2022-09-30T02:01:20;98854.63;;;15.65;100.00
21960;BME280;11144;43.030;25.108;2022-09-30T02:02:58;98854.81;;;15.62;100.00
21960;BME280;11144;43.030;25.108;2022-09-30T02:04:35;98850.81;;;15.55;100.00
21960;BME280;11144;43.030;25.108;2022-09-30T02:06:14;98853.50;;;15.55;100.00
21960;BME280;11144;43.030;25.108;2022-09-30T02:07:54;98848.84;;;15.58;100.00
21960;BME280;11144;43.030;25.108;2022-09-30T02:09:34;98845.88;;;15.63;100.00
21960;BME280;11144;43.030;25.108;2022-09-30T02:11:13;98852.06;;;15.63;100.00
21960;BME280;11144;43.030;25.108;2022-09-30T02:12:53;98840.66;;;15.61;100.00
21960;BME280;11144;43.030;25.108;2022-09-30T02:14:32;98840.94;;;15.57;100.00
21960;BME280;11144;43.030;25.108;2022-09-30T02:16:13;98839.41;;;15.53;100.00
21960;BME280;11144;43.030;25.108;2022-09-30T02:17:52;98839.59;;;15.50;100.00
21960;BME280;11144;43.030;25.108;2022-09-30T02:19:32;98838.09;;;15.46;100.00
21960;BME280;11144;43.030;25.108;2022-09-30T02:21:10;98853.13;;;15.33;100.00
21960;BME280;11144;43.030;25.108;2022-09-30T02:22:48;98850.47;;;15.19;100.00
21960;BME280;11144;43.030;25.108;2022-09-30T02:24:25;98853.41;;;15.14;100.00
21960;BME280;11144;43.030;25.108;2022-09-30T02:26:03;98862.53;;;15.10;100.00
21960;BME280;11144;43.030;25.108;2022-09-30T02:27:40;98852.75;;;15.11;100.00
21960;BME280;11144;43.030;25.108;2022-09-30T02:29:20;98854.25;;;15.01;100.00
21960;BME280;11144;43.030;25.108;2022-09-30T02:30:57;98855.38;;;14.97;100.00
21960;BME280;11144;43.030;25.108;2022-09-30T02:32:34;98846.63;;;14.95;100.00
21960;BME280;11144;43.030;25.108;2022-09-30T02:34:13;98855.38;;;14.97;100.00
21960;BME280;11144;43.030;25.108;2022-09-30T02:35:53;98864.31;;;14.96;100.00
21960;BME280;11144;43.030;25.108;2022-09-30T02:37:32;98869.84;;;14.93;100.00
21960;BME280;11144;43.030;25.108;2022-09-30T02:39:09;98866.41;;;14.91;100.00
21960;BME280;11144;43.030;25.108;2022-09-30T02:40:49;98875.16;;;14.93;100.00
21960;BME280;11144;43.030;25.108;2022-09-30T02:42:24;98870.50;;;14.96;100.00
21960;BME280;11144;43.030;25.108;2022-09-30T02:43:59;98864.13;;;14.99;100.00
21960;BME280;11144;43.030;25.108;2022-09-30T02:45:39;98867.38;;;15.04;100.00
21960;BME280;11144;43.030;25.108;2022-09-30T02:47:21;98859.66;;;14.99;100.00
21960;BME280;11144;43.030;25.108;2022-09-30T02:49:01;98873.28;;;15.09;100.00
21960;BME280;11144;43.030;25.108;2022-09-30T02:50:42;98874.69;;;15.14;100.00
21960;BME280;11144;43.030;25.108;2022-09-30T02:52:23;98877.09;;;15.19;100.00
21960;BME280;11144;43.030;25.108;2022-09-30T02:54:02;98871.94;;;15.16;100.00
21960;BME280;11144;43.030;25.108;2022-09-30T02:55:43;98878.97;;;15.17;100.00
21960;BME280;11144;43.030;25.108;2022-09-30T02:57:26;98886.41;;;15.12;100.00
21960;BME280;11144;43.030;25.108;2022-09-30T02:59:02;98882.78;;;15.13;100.00
21960;BME280;11144;43.030;25.108;2022-09-30T03:00:34;98875.75;;;15.12;100.00
21960;BME280;11144;43.030;25.108;2022-09-30T03:02:07;98881.81;;;15.14;100.00
21960;BME280;11144;43.030;25.108;2022-09-30T03:03:42;98875.75;;;15.12;100.00
21960;BME280;11144;43.030;25.108;2022-09-30T03:05:17;98877.47;;;15.13;100.00
21960;BME280;11144;43.030;25.108;2022-09-30T03:06:51;98874.69;;;15.14;100.00
21960;BME280;11144;43.030;25.108;2022-09-30T03:08:25;98874.06;;;15.11;100.00
21960;BME280;11144;43.030;25.108;2022-09-30T03:09:58;98867.16;;;15.07;100.00
21960;BME280;11144;43.030;25.108;2022-09-30T03:11:31;98870.78;;;15.06;100.00
21960;BME280;11144;43.030;25.108;2022-09-30T03:13:16;98872.72;;;15.04;100.00
21960;BME280;11144;43.030;25.108;2022-09-30T03:15:10;98872.72;;;15.04;100.00
21960;BME280;11144;43.030;25.108;2022-09-30T03:17:09;98869.44;;;14.99;100.00
21960;BME280;11144;43.030;25.108;2022-09-30T03:18:58;98870.19;;;14.87;100.00
21960;BME280;11144;43.030;25.108;2022-09-30T03:20:45;98871.25;;;14.84;100.00
21960;BME280;11144;43.030;25.108;2022-09-30T03:22:44;98866.00;;;14.83;100.00
21960;BME280;11144;43.030;25.108;2022-09-30T03:24:50;98870.78;;;14.78;100.00
21960;BME280;11144;43.030;25.108;2022-09-30T03:26:37;98867.31;;;14.76;100.00
21960;BME280;11144;43.030;25.108;2022-09-30T03:28:18;98870.25;;;14.71;100.00
21960;BME280;11144;43.030;25.108;2022-09-30T03:30:00;98877.31;;;14.72;100.00
21960;BME280;11144;43.030;25.108;2022-09-30T03:31:40;98882.63;;;14.72;100.00
21960;BME280;11144;43.030;25.108;2022-09-30T03:33:22;98882.63;;;14.72;100.00
21960;BME280;11144;43.030;25.108;2022-09-30T03:35:02;98883.47;;;14.73;100.00
21960;BME280;11144;43.030;25.108;2022-09-30T03:36:38;98879.84;;;14.74;100.00
21960;BME280;11144;43.030;25.108;2022-09-30T03:38:23;98881.41;;;14.78;100.00
21960;BME280;11144;43.030;25.108;2022-09-30T03:40:03;98884.06;;;14.78;100.00
21960;BME280;11144;43.030;25.108;2022-09-30T03:41:45;98880.72;;;14.74;100.00
21960;BME280;11144;43.030;25.108;2022-09-30T03:43:23;98878.16;;;14.73;100.00
21960;BME280;11144;43.030;25.108;2022-09-30T03:45:02;98885.56;;;14.68;100.00
21960;BME280;11144;43.030;25.108;2022-09-30T03:46:42;98878.72;;;14.64;100.00
21960;BME280;11144;43.030;25.108;2022-09-30T03:48:17;98865.75;;;14.58;100.00
21960;BME280;11144;43.030;25.108;2022-09-30T03:49:53;98863.28;;;14.55;100.00
21960;BME280;11144;43.030;25.108;2022-09-30T03:51:28;98866.88;;;14.54;100.00
21960;BME280;11144;43.030;25.108;2022-09-30T03:53:02;98868.59;;;14.55;100.00
21960;BME280;11144;43.030;25.108;2022-09-30T03:54:46;98851.47;;;14.45;100.00
21960;BME280;11144;43.030;25.108;2022-09-30T03:56:24;98877.53;;;14.54;100.00
21960;BME280;11144;43.030;25.108;2022-09-30T03:57:58;98875.75;;;14.54;100.00
21960;BME280;11144;43.030;25.108;2022-09-30T03:59:31;98881.06;;;14.54;100.00
21960;BME280;11144;43.030;25.108;2022-09-30T04:01:04;98867.75;;;14.54;100.00
21960;BME280;11144;43.030;25.108;2022-09-30T04:02:38;98883.72;;;14.54;100.00
21960;BME280;11144;43.030;25.108;2022-09-30T04:04:11;98878.31;;;14.56;100.00
21960;BME280;11144;43.030;25.108;2022-09-30T04:05:44;98882.69;;;14.57;100.00
21960;BME280;11144;43.030;25.108;2022-09-30T04:07:18;98890.56;;;14.58;100.00
21960;BME280;11144;43.030;25.108;2022-09-30T04:08:51;98879.16;;;14.56;100.00
21960;BME280;11144;43.030;25.108;2022-09-30T04:10:26;98881.81;;;14.56;100.00
21960;BME280;11144;43.030;25.108;2022-09-30T04:11:59;98888.34;;;14.51;100.00
21960;BME280;11144;43.030;25.108;2022-09-30T04:13:32;98883.19;;;14.48;100.00
21960;BME280;11144;43.030;25.108;2022-09-30T04:15:07;98890.09;;;14.52;100.00
21960;BME280;11144;43.030;25.108;2022-09-30T04:16:40;98888.19;;;14.54;100.00
21960;BME280;11144;43.030;25.108;2022-09-30T04:18:13;98881.81;;;14.56;100.00
21960;BME280;11144;43.030;25.108;2022-09-30T04:19:47;98890.56;;;14.58;100.00
21960;BME280;11144;43.030;25.108;2022-09-30T04:21:20;98887.13;;;14.56;100.00
21960;BME280;11144;43.030;25.108;2022-09-30T04:22:56;98887.44;;;14.52;100.00
21960;BME280;11144;43.030;25.108;2022-09-30T04:24:28;98891.97;;;14.50;100.00
21960;BME280;11144;43.030;25.108;2022-09-30T04:26:03;98897.19;;;14.51;100.00
21960;BME280;11144;43.030;25.108;2022-09-30T04:27:37;98898.06;;;14.52;100.00
21960;BME280;11144;43.030;25.108;2022-09-30T04:29:10;98893.59;;;14.52;100.00
21960;BME280;11144;43.030;25.108;2022-09-30T04:30:44;98897.88;;;14.55;100.00
21960;BME280;11144;43.030;25.108;2022-09-30T04:32:17;98907.59;;;14.56;100.00
21960;BME280;11144;43.030;25.108;2022-09-30T04:33:52;98903.78;;;14.60;100.00
21960;BME280;11144;43.030;25.108;2022-09-30T04:35:27;98907.38;;;14.59;100.00
21960;BME280;11144;43.030;25.108;2022-09-30T04:37:01;98903.78;;;14.60;100.00
21960;BME280;11144;43.030;25.108;2022-09-30T04:38:36;98907.19;;;14.62;100.00
21960;BME280;11144;43.030;25.108;2022-09-30T04:40:10;98907.19;;;14.62;100.00
21960;BME280;11144;43.030;25.108;2022-09-30T04:41:45;98919.75;;;14.60;100.00
21960;BME280;11144;43.030;25.108;2022-09-30T04:43:18;98919.75;;;14.60;100.00
21960;BME280;11144;43.030;25.108;2022-09-30T04:44:54;98930.41;;;14.60;100.00
21960;BME280;11144;43.030;25.108;2022-09-30T04:46:28;98934.00;;;14.59;100.00
21960;BME280;11144;43.030;25.108;2022-09-30T04:48:02;98928.56;;;14.60;100.00
21960;BME280;11144;43.030;25.108;2022-09-30T04:49:35;98921.47;;;14.61;100.00
21960;BME280;11144;43.030;25.108;2022-09-30T04:51:08;98909.47;;;14.54;100.00
21960;BME280;11144;43.030;25.108;2022-09-30T04:52:41;98926.63;;;14.64;100.00
21960;BME280;11144;43.030;25.108;2022-09-30T04:54:15;98930.22;;;14.63;100.00
21960;BME280;11144;43.030;25.108;2022-09-30T04:55:48;98938.22;;;14.63;100.00
21960;BME280;11144;43.030;25.108;2022-09-30T04:57:23;98935.16;;;14.69;100.00
21960;BME280;11144;43.030;25.108;2022-09-30T04:58:56;98944.91;;;14.84;100.00
21960;BME280;11144;43.030;25.108;2022-09-30T05:00:29;98949.16;;;15.02;100.00
21960;BME280;11144;43.030;25.108;2022-09-30T05:02:02;98941.50;;;15.25;100.00
21960;BME280;11144;43.030;25.108;2022-09-30T05:03:36;98944.78;;;15.58;100.00
21960;BME280;11144;43.030;25.108;2022-09-30T05:05:10;98948.66;;;15.95;100.00
21960;BME280;11144;43.030;25.108;2022-09-30T05:06:43;98945.56;;;16.29;100.00
21960;BME280;11144;43.030;25.108;2022-09-30T05:08:17;98948.81;;;16.60;100.00
21960;BME280;11144;43.030;25.108;2022-09-30T05:09:50;98949.34;;;16.92;100.00
21960;BME280;11144;43.030;25.108;2022-09-30T05:11:24;98948.44;;;17.18;100.00
21960;BME280;11144;43.030;25.108;2022-09-30T05:12:59;98950.03;;;17.33;100.00
21960;BME280;11144;43.030;25.108;2022-09-30T05:14:33;98946.34;;;17.48;100.00
21960;BME280;11144;43.030;25.108;2022-09-30T05:16:07;98936.81;;;17.69;100.00
21960;BME280;11144;43.030;25.108;2022-09-30T05:17:40;98942.09;;;17.94;100.00
21960;BME280;11144;43.030;25.108;2022-09-30T05:19:13;98929.63;;;18.18;100.00
21960;BME280;11144;43.030;25.108;2022-09-30T05:20:48;98941.03;;;18.45;100.00
21960;BME280;11144;43.030;25.108;2022-09-30T05:22:21;98941.41;;;18.75;100.00
21960;BME280;11144;43.030;25.108;2022-09-30T05:23:56;98945.97;;;19.09;100.00
21960;BME280;11144;43.030;25.108;2022-09-30T05:25:29;98938.34;;;19.27;100.00
21960;BME280;11144;43.030;25.108;2022-09-30T05:27:02;98934.38;;;19.43;100.00
21960;BME280;11144;43.030;25.108;2022-09-30T05:28:37;98923.16;;;19.60;100.00
21960;BME280;11144;43.030;25.108;2022-09-30T05:30:10;98947.31;;;19.82;100.00
21960;BME280;11144;43.030;25.108;2022-09-30T05:31:43;98947.81;;;19.98;100.00
21960;BME280;11144;43.030;25.108;2022-09-30T05:33:17;98947.34;;;20.16;100.00
21960;BME280;11144;43.030;25.108;2022-09-30T05:34:50;98949.06;;;20.28;100.00
21960;BME280;11144;43.030;25.108;2022-09-30T05:36:23;98949.97;;;20.38;100.00
21960;BME280;11144;43.030;25.108;2022-09-30T05:37:56;98942.84;;;20.59;100.00
21960;BME280;11144;43.030;25.108;2022-09-30T05:39:29;98961.16;;;20.76;100.00
21960;BME280;11144;43.030;25.108;2022-09-30T05:41:06;98956.19;;;20.92;100.00
21960;BME280;11144;43.030;25.108;2022-09-30T05:42:42;98960.63;;;21.13;100.00
21960;BME280;11144;43.030;25.108;2022-09-30T05:44:17;98963.75;;;21.50;100.00
21960;BME280;11144;43.030;25.108;2022-09-30T05:45:53;98960.00;;;21.82;100.00
21960;BME280;11144;43.030;25.108;2022-09-30T05:47:26;98940.31;;;22.12;100.00
21960;BME280;11144;43.030;25.108;2022-09-30T05:49:00;98939.53;;;22.40;100.00
21960;BME280;11144;43.030;25.108;2022-09-30T05:50:33;98938.63;;;22.60;100.00
21960;BME280;11144;43.030;25.108;2022-09-30T05:52:06;98944.72;;;22.81;100.00
21960;BME280;11144;43.030;25.108;2022-09-30T05:53:39;98946.59;;;22.99;100.00
21960;BME280;11144;43.030;25.108;2022-09-30T05:55:13;98935.66;;;23.20;100.00
21960;BME280;11144;43.030;25.108;2022-09-30T05:56:46;98934.78;;;23.48;100.00
21960;BME280;11144;43.030;25.108;2022-09-30T05:58:20;98924.59;;;23.42;100.00
21960;BME280;11144;43.030;25.108;2022-09-30T05:59:53;98937.22;;;23.32;100.00
21960;BME280;11144;43.030;25.108;2022-09-30T06:01:27;98931.97;;;23.40;100.00
21960;BME280;11144;43.030;25.108;2022-09-30T06:03:00;98934.22;;;23.54;100.00
21960;BME280;11144;43.030;25.108;2022-09-30T06:04:33;98941.00;;;23.68;100.00
21960;BME280;11144;43.030;25.108;2022-09-30T06:06:07;98934.63;;;23.69;100.00
21960;BME280;11144;43.030;25.108;2022-09-30T06:07:40;98919.09;;;23.71;100.00
21960;BME280;11144;43.030;25.108;2022-09-30T06:09:13;98916.78;;;23.85;100.00
21960;BME280;11144;43.030;25.108;2022-09-30T06:10:47;98918.25;;;23.70;100.00
21960;BME280;11144;43.030;25.108;2022-09-30T06:12:20;98904.88;;;23.78;100.00
21960;BME280;11144;43.030;25.108;2022-09-30T06:13:54;98911.06;;;23.88;100.00
21960;BME280;11144;43.030;25.108;2022-09-30T06:15:29;98920.19;;;23.87;100.00
21960;BME280;11144;43.030;25.108;2022-09-30T06:17:03;98917.84;;;24.11;100.00
21960;BME280;11144;43.030;25.108;2022-09-30T06:18:37;98918.63;;;24.21;100.00
21960;BME280;11144;43.030;25.108;2022-09-30T06:20:12;98934.94;;;24.29;100.00
21960;BME280;11144;43.030;25.108;2022-09-30T06:21:45;98926.41;;;24.51;100.00
21960;BME280;11144;43.030;25.108;2022-09-30T06:23:18;98930.94;;;24.60;100.00
21960;BME280;11144;43.030;25.108;2022-09-30T06:24:51;98939.84;;;24.43;100.00
21960;BME280;11144;43.030;25.108;2022-09-30T06:26:26;98941.97;;;24.49;100.00
21960;BME280;11144;43.030;25.108;2022-09-30T06:27:59;98950.06;;;24.49;100.00
21960;BME280;11144;43.030;25.108;2022-09-30T06:29:33;98941.19;;;24.66;100.00
21960;BME280;11144;43.030;25.108;2022-09-30T06:31:08;98947.22;;;24.95;100.00
21960;BME280;11144;43.030;25.108;2022-09-30T06:32:42;98957.28;;;25.20;100.00
21960;BME280;11144;43.030;25.108;2022-09-30T06:34:16;98953.41;;;25.05;100.00
21960;BME280;11144;43.030;25.108;2022-09-30T06:35:50;98942.50;;;25.15;100.00
21960;BME280;11144;43.030;25.108;2022-09-30T06:37:23;98944.41;;;25.32;100.00
21960;BME280;11144;43.030;25.108;2022-09-30T06:38:57;98949.09;;;25.47;100.00
21960;BME280;11144;43.030;25.108;2022-09-30T06:40:30;98949.22;;;25.63;100.00
21960;BME280;11144;43.030;25.108;2022-09-30T06:42:03;98944.91;;;25.78;100.00
21960;BME280;11144;43.030;25.108;2022-09-30T06:43:38;98956.00;;;25.93;100.00
21960;BME280;11144;43.030;25.108;2022-09-30T06:45:34;98955.59;;;26.06;100.00
21960;BME280;11144;43.030;25.108;2022-09-30T06:47:09;98950.84;;;26.00;100.00
21960;BME280;11144;43.030;25.108;2022-09-30T06:48:53;98951.91;;;26.07;100.00
21960;BME280;11144;43.030;25.108;2022-09-30T06:50:41;98951.97;;;26.23;100.00
21960;BME280;11144;43.030;25.108;2022-09-30T06:52:29;98946.53;;;26.23;100.00
21960;BME280;11144;43.030;25.108;2022-09-30T06:54:02;98951.91;;;26.48;100.00
21960;BME280;11144;43.030;25.108;2022-09-30T06:55:36;98957.94;;;26.68;100.00
21960;BME280;11144;43.030;25.108;2022-09-30T06:57:10;98962.41;;;26.85;100.00
21960;BME280;11144;43.030;25.108;2022-09-30T06:58:44;98957.69;;;27.03;100.00
21960;BME280;11144;43.030;25.108;2022-09-30T07:00:17;98959.06;;;27.07;100.00
21960;BME280;11144;43.030;25.108;2022-09-30T07:01:51;98956.34;;;27.07;100.00
21960;BME280;11144;43.030;25.108;2022-09-30T07:03:27;98960.44;;;27.11;100.00
21960;BME280;11144;43.030;25.108;2022-09-30T07:05:01;98953.31;;;27.10;100.00
21960;BME280;11144;43.030;25.108;2022-09-30T07:06:35;98955.03;;;27.27;100.00
21960;BME280;11144;43.030;25.108;2022-09-30T07:08:09;98948.06;;;27.48;100.00
21960;BME280;11144;43.030;25.108;2022-09-30T07:09:42;98952.13;;;27.76;100.00
21960;BME280;11144;43.030;25.108;2022-09-30T07:11:15;98954.66;;;27.94;100.00
21960;BME280;11144;43.030;25.108;2022-09-30T07:12:49;98956.34;;;28.11;100.00
21960;BME280;11144;43.030;25.108;2022-09-30T07:14:23;98960.38;;;28.23;100.00
21960;BME280;11144;43.030;25.108;2022-09-30T07:15:56;98956.28;;;28.27;100.00
21960;BME280;11144;43.030;25.108;2022-09-30T07:17:29;98967.53;;;28.16;100.00
21960;BME280;11144;43.030;25.108;2022-09-30T07:19:05;98970.09;;;28.09;100.00
21960;BME280;11144;43.030;25.108;2022-09-30T07:20:47;98971.97;;;28.09;100.00
21960;BME280;11144;43.030;25.108;2022-09-30T07:22:19;98967.69;;;28.30;100.00
21960;BME280;11144;43.030;25.108;2022-09-30T07:24:02;98965.78;;;28.39;100.00
21960;BME280;11144;43.030;25.108;2022-09-30T07:25:36;98964.28;;;28.28;100.00
21960;BME280;11144;43.030;25.108;2022-09-30T07:27:09;98968.91;;;28.12;100.00
21960;BME280;11144;43.030;25.108;2022-09-30T07:28:44;98977.41;;;28.17;100.00
21960;BME280;11144;43.030;25.108;2022-09-30T07:30:18;98983.16;;;28.30;100.00
21960;BME280;11144;43.030;25.108;2022-09-30T07:31:58;98971.81;;;28.65;100.00
21960;BME280;11144;43.030;25.108;2022-09-30T07:33:32;98973.38;;;28.90;100.00
21960;BME280;11144;43.030;25.108;2022-09-30T07:35:08;98970.97;;;29.03;100.00
21960;BME280;11144;43.030;25.108;2022-09-30T07:36:41;98968.66;;;28.45;100.00
21960;BME280;11144;43.030;25.108;2022-09-30T07:38:14;98975.41;;;28.03;100.00
21960;BME280;11144;43.030;25.108;2022-09-30T07:39:48;98978.47;;;27.60;100.00
21960;BME280;11144;43.030;25.108;2022-09-30T07:41:23;98977.47;;;27.37;100.00
21960;BME280;11144;43.030;25.108;2022-09-30T07:42:58;98981.88;;;27.62;100.00
21960;BME280;11144;43.030;25.108;2022-09-30T07:44:32;98975.41;;;27.87;100.00
21960;BME280;11144;43.030;25.108;2022-09-30T07:46:09;98977.06;;;28.12;100.00
21960;BME280;11144;43.030;25.108;2022-09-30T07:47:43;98975.97;;;28.45;100.00
21960;BME280;11144;43.030;25.108;2022-09-30T07:49:24;98975.19;;;28.67;100.00
21960;BME280;11144;43.030;25.108;2022-09-30T07:50:58;98975.84;;;28.77;100.00
21960;BME280;11144;43.030;25.108;2022-09-30T07:52:32;98975.38;;;28.96;100.00
21960;BME280;11144;43.030;25.108;2022-09-30T07:54:07;98978.47;;;28.93;100.00
21960;BME280;11144;43.030;25.108;2022-09-30T07:55:40;98979.16;;;28.95;100.00
21960;BME280;11144;43.030;25.108;2022-09-30T07:57:13;98982.09;;;29.16;100.00
21960;BME280;11144;43.030;25.108;2022-09-30T07:58:47;98988.28;;;29.33;100.00
21960;BME280;11144;43.030;25.108;2022-09-30T08:00:20;98987.53;;;29.69;100.00
21960;BME280;11144;43.030;25.108;2022-09-30T08:02:15;98995.88;;;29.90;100.00
21960;BME280;11144;43.030;25.108;2022-09-30T08:03:52;98979.41;;;29.98;100.00
21960;BME280;11144;43.030;25.108;2022-09-30T08:05:25;98993.34;;;30.03;100.00
21960;BME280;11144;43.030;25.108;2022-09-30T08:07:00;98987.34;;;30.22;100.00
21960;BME280;11144;43.030;25.108;2022-09-30T08:08:35;98990.19;;;30.43;100.00
21960;BME280;11144;43.030;25.108;2022-09-30T08:10:09;98982.94;;;30.50;100.00
21960;BME280;11144;43.030;25.108;2022-09-30T08:11:42;98991.59;;;30.68;100.00
21960;BME280;11144;43.030;25.108;2022-09-30T08:13:15;98993.03;;;30.79;100.00
21960;BME280;11144;43.030;25.108;2022-09-30T08:14:50;98993.59;;;30.74;100.00
21960;BME280;11144;43.030;25.108;2022-09-30T08:16:24;98977.19;;;30.45;100.00
21960;BME280;11144;43.030;25.108;2022-09-30T08:17:58;98994.78;;;30.43;100.00
21960;BME280;11144;43.030;25.108;2022-09-30T08:19:32;98992.47;;;30.54;100.00
21960;BME280;11144;43.030;25.108;2022-09-30T08:21:06;98992.09;;;30.57;100.00
21960;BME280;11144;43.030;25.108;2022-09-30T08:22:41;98995.94;;;30.77;100.00